sensor_id;sensor_type;location;lat;lon;timestamp;noise_LAeq;noise_LA_min;noise_LA_max;noise_LA01;noise_LA95
40465;Laerm;30489;48.982;8.394;2023-04-24T00:02:02;39.27;37.12;41.30;;
40465;Laerm;30489;48.982;8.394;2023-04-24T00:04:13;39.28;37.32;41.06;;
40465;Laerm;30489;48.982;8.394;2023-04-24T00:06:26;39.29;37.32;41.14;;
40465;Laerm;30489;48.982;8.394;2023-04-24T00:08:43;39.27;37.12;40.98;;
40465;Laerm;30489;48.982;8.394;2023-04-24T00:10:53;39.28;36.91;40.88;;
40465;Laerm;30489;48.982;8.394;2023-04-24T00:13:03;39.31;37.12;40.98;;
40465;Laerm;30489;48.982;8.394;2023-04-24T00:15:14;39.30;37.12;40.98;;
40465;Laerm;30489;48.982;8.394;2023-04-24T00:17:24;39.32;37.32;41.06;;
40465;Laerm;30489;48.982;8.394;2023-04-24T00:19:34;39.30;37.32;41.22;;
40465;Laerm;30489;48.982;8.394;2023-04-24T00:21:44;39.34;37.52;41.06;;
40465;Laerm;30489;48.982;8.394;2023-04-24T00:23:54;39.35;37.12;41.14;;
40465;Laerm;30489;48.982;8.394;2023-04-24T00:26:05;39.33;37.52;41.11;;
40465;Laerm;30489;48.982;8.394;2023-04-24T00:28:15;39.32;37.12;41.22;;
40465;Laerm;30489;48.982;8.394;2023-04-24T00:30:25;39.34;37.32;40.98;;
40465;Laerm;30489;48.982;8.394;2023-04-24T00:32:35;39.32;37.12;40.98;;
40465;Laerm;30489;48.982;8.394;2023-04-24T00:34:45;39.34;37.12;41.06;;
40465;Laerm;30489;48.982;8.394;2023-04-24T00:36:56;39.35;37.32;40.98;;
40465;Laerm;30489;48.982;8.394;2023-04-24T00:39:06;39.41;36.91;41.38;;
40465;Laerm;30489;48.982;8.394;2023-04-24T00:41:18;39.39;37.32;41.30;;
40465;Laerm;30489;48.982;8.394;2023-04-24T00:43:28;39.43;37.32;41.06;;
40465;Laerm;30489;48.982;8.394;2023-04-24T00:45:39;39.42;37.32;41.89;;
40465;Laerm;30489;48.982;8.394;2023-04-24T00:47:49;39.45;37.52;41.38;;
40465;Laerm;30489;48.982;8.394;2023-04-24T00:50:05;39.43;37.52;41.14;;
40465;Laerm;30489;48.982;8.394;2023-04-24T00:52:16;39.39;36.91;41.06;;
40465;Laerm;30489;48.982;8.394;2023-04-24T00:54:28;39.41;37.52;41.06;;
40465;Laerm;30489;48.982;8.394;2023-04-24T00:56:39;39.41;37.32;42.16;;
40465;Laerm;30489;48.982;8.394;2023-04-24T00:58:50;39.39;37.32;40.98;;
40465;Laerm;30489;48.982;8.394;2023-04-24T01:01:00;39.38;37.32;41.48;;
40465;Laerm;30489;48.982;8.394;2023-04-24T01:03:12;39.36;36.69;40.89;;
40465;Laerm;30489;48.982;8.394;2023-04-24T01:05:23;39.39;37.32;41.14;;
40465;Laerm;30489;48.982;8.394;2023-04-24T01:07:33;39.37;37.12;41.30;;
40465;Laerm;30489;48.982;8.394;2023-04-24T01:09:44;39.37;37.32;41.46;;
40465;Laerm;30489;48.982;8.394;2023-04-24T01:11:57;39.37;37.32;43.58;;
40465;Laerm;30489;48.982;8.394;2023-04-24T01:14:07;39.33;37.32;41.46;;
40465;Laerm;30489;48.982;8.394;2023-04-24T01:16:18;39.34;36.69;41.53;;
40465;Laerm;30489;48.982;8.394;2023-04-24T01:18:31;39.33;37.52;41.22;;
40465;Laerm;30489;48.982;8.394;2023-04-24T01:20:42;39.33;37.32;41.06;;
40465;Laerm;30489;48.982;8.394;2023-04-24T01:22:54;39.32;37.32;41.61;;
40465;Laerm;30489;48.982;8.394;2023-04-24T01:25:06;39.32;37.32;41.22;;
40465;Laerm;30489;48.982;8.394;2023-04-24T01:27:16;39.33;37.12;40.98;;
40465;Laerm;30489;48.982;8.394;2023-04-24T01:29:26;39.34;36.91;41.06;;
40465;Laerm;30489;48.982;8.394;2023-04-24T01:31:37;39.33;37.32;40.98;;
40465;Laerm;30489;48.982;8.394;2023-04-24T01:33:47;39.34;37.12;41.06;;
40465;Laerm;30489;48.982;8.394;2023-04-24T01:35:58;39.37;36.91;40.98;;
40465;Laerm;30489;48.982;8.394;2023-04-24T01:38:08;39.32;37.12;41.06;;
40465;Laerm;30489;48.982;8.394;2023-04-24T01:40:18;39.33;37.12;40.89;;
40465;Laerm;30489;48.982;8.394;2023-04-24T01:42:29;39.36;36.69;41.14;;
40465;Laerm;30489;48.982;8.394;2023-04-24T01:44:39;39.35;36.91;41.22;;
40465;Laerm;30489;48.982;8.394;2023-04-24T01:46:50;39.31;37.12;40.98;;
40465;Laerm;30489;48.982;8.394;2023-04-24T01:49:00;39.32;37.32;41.53;;
40465;Laerm;30489;48.982;8.394;2023-04-24T01:51:10;39.30;37.32;46.02;;
40465;Laerm;30489;48.982;8.394;2023-04-24T01:53:20;39.29;36.69;43.19;;
40465;Laerm;30489;48.982;8.394;2023-04-24T01:55:31;39.28;37.12;41.22;;
40465;Laerm;30489;48.982;8.394;2023-04-24T01:57:41;39.24;37.12;41.41;;
40465;Laerm;30489;48.982;8.394;2023-04-24T01:59:51;39.23;37.12;40.98;;
40465;Laerm;30489;48.982;8.394;2023-04-24T02:02:02;39.25;37.12;40.89;;
40465;Laerm;30489;48.982;8.394;2023-04-24T02:04:12;39.26;37.12;40.98;;
40465;Laerm;30489;48.982;8.394;2023-04-24T02:06:24;39.25;37.12;41.22;;
40465;Laerm;30489;48.982;8.394;2023-04-24T02:08:35;39.25;37.12;41.06;;
40465;Laerm;30489;48.982;8.394;2023-04-24T02:10:45;39.24;37.12;45.45;;
40465;Laerm;30489;48.982;8.394;2023-04-24T02:12:55;39.22;37.32;40.98;;
40465;Laerm;30489;48.982;8.394;2023-04-24T02:15:06;39.23;36.69;47.34;;
40465;Laerm;30489;48.982;8.394;2023-04-24T02:17:16;39.19;37.32;40.80;;
40465;Laerm;30489;48.982;8.394;2023-04-24T02:19:27;39.20;36.69;46.78;;
40465;Laerm;30489;48.982;8.394;2023-04-24T02:21:37;39.18;36.91;43.29;;
40465;Laerm;30489;48.982;8.394;2023-04-24T02:23:48;39.19;36.91;48.77;;
40465;Laerm;30489;48.982;8.394;2023-04-24T02:25:58;39.14;36.69;41.75;;
40465;Laerm;30489;48.982;8.394;2023-04-24T02:28:08;39.16;36.91;49.08;;
40465;Laerm;30489;48.982;8.394;2023-04-24T02:30:18;39.16;37.12;42.88;;
40465;Laerm;30489;48.982;8.394;2023-04-24T02:32:28;39.14;36.69;43.90;;
40465;Laerm;30489;48.982;8.394;2023-04-24T02:34:40;39.14;36.98;42.47;;
40465;Laerm;30489;48.982;8.394;2023-04-24T02:36:50;39.16;37.12;41.53;;
40465;Laerm;30489;48.982;8.394;2023-04-24T02:39:00;39.12;36.91;45.36;;
40465;Laerm;30489;48.982;8.394;2023-04-24T02:41:11;39.14;36.91;47.48;;
40465;Laerm;30489;48.982;8.394;2023-04-24T02:43:21;39.16;36.91;44.07;;
40465;Laerm;30489;48.982;8.394;2023-04-24T02:45:31;39.12;36.91;42.76;;
40465;Laerm;30489;48.982;8.394;2023-04-24T02:47:44;39.13;36.91;41.06;;
40465;Laerm;30489;48.982;8.394;2023-04-24T02:49:54;39.12;36.91;44.97;;
40465;Laerm;30489;48.982;8.394;2023-04-24T02:52:05;39.12;36.91;43.14;;
40465;Laerm;30489;48.982;8.394;2023-04-24T02:54:15;39.10;36.91;46.82;;
40465;Laerm;30489;48.982;8.394;2023-04-24T02:56:25;39.11;36.69;54.99;;
40465;Laerm;30489;48.982;8.394;2023-04-24T02:58:36;39.00;36.20;41.53;;
40465;Laerm;30489;48.982;8.394;2023-04-24T03:00:46;38.98;36.45;40.71;;
40465;Laerm;30489;48.982;8.394;2023-04-24T03:02:57;38.97;36.20;41.89;;
40465;Laerm;30489;48.982;8.394;2023-04-24T03:05:07;38.91;36.45;40.71;;
40465;Laerm;30489;48.982;8.394;2023-04-24T03:07:17;38.92;36.45;40.80;;
40465;Laerm;30489;48.982;8.394;2023-04-24T03:09:30;38.88;36.20;40.89;;
40465;Laerm;30489;48.982;8.394;2023-04-24T03:11:40;38.88;36.20;40.98;;
40465;Laerm;30489;48.982;8.394;2023-04-24T03:13:51;38.88;36.45;45.48;;
40465;Laerm;30489;48.982;8.394;2023-04-24T03:16:01;38.87;36.20;41.06;;
40465;Laerm;30489;48.982;8.394;2023-04-24T03:18:11;38.90;35.94;40.71;;
40465;Laerm;30489;48.982;8.394;2023-04-24T03:20:22;38.87;36.45;40.98;;
40465;Laerm;30489;48.982;8.394;2023-04-24T03:22:32;38.85;35.94;42.47;;
40465;Laerm;30489;48.982;8.394;2023-04-24T03:24:43;38.88;36.45;40.71;;
40465;Laerm;30489;48.982;8.394;2023-04-24T03:26:53;38.85;36.20;40.89;;
40465;Laerm;30489;48.982;8.394;2023-04-24T03:29:04;38.85;35.94;44.03;;
40465;Laerm;30489;48.982;8.394;2023-04-24T03:31:14;38.86;36.20;40.80;;
40465;Laerm;30489;48.982;8.394;2023-04-24T03:33:25;38.83;35.94;45.20;;
40465;Laerm;30489;48.982;8.394;2023-04-24T03:35:35;38.87;36.20;40.71;;
40465;Laerm;30489;48.982;8.394;2023-04-24T03:37:46;38.80;35.66;40.89;;
40465;Laerm;30489;48.982;8.394;2023-04-24T03:39:56;38.82;36.20;40.88;;
40465;Laerm;30489;48.982;8.394;2023-04-24T03:42:06;38.80;35.94;40.53;;
40465;Laerm;30489;48.982;8.394;2023-04-24T03:44:18;38.80;36.45;40.71;;
40465;Laerm;30489;48.982;8.394;2023-04-24T03:46:28;38.77;36.20;40.89;;
40465;Laerm;30489;48.982;8.394;2023-04-24T03:48:38;38.79;35.94;40.80;;
40465;Laerm;30489;48.982;8.394;2023-04-24T03:50:49;38.77;36.45;40.89;;
40465;Laerm;30489;48.982;8.394;2023-04-24T03:52:59;38.76;36.20;40.62;;
40465;Laerm;30489;48.982;8.394;2023-04-24T03:55:09;38.76;36.45;40.71;;
40465;Laerm;30489;48.982;8.394;2023-04-24T03:57:23;38.78;35.94;40.98;;
40465;Laerm;30489;48.982;8.394;2023-04-24T03:59:33;38.79;36.20;40.80;;
40465;Laerm;30489;48.982;8.394;2023-04-24T04:01:43;38.81;35.94;40.80;;
40465;Laerm;30489;48.982;8.394;2023-04-24T04:03:53;38.80;35.94;40.80;;
40465;Laerm;30489;48.982;8.394;2023-04-24T04:06:04;38.82;36.20;40.80;;
40465;Laerm;30489;48.982;8.394;2023-04-24T04:08:14;38.87;36.77;40.89;;
40465;Laerm;30489;48.982;8.394;2023-04-24T04:10:24;38.84;36.45;40.98;;
40465;Laerm;30489;48.982;8.394;2023-04-24T04:12:34;38.82;36.20;40.80;;
40465;Laerm;30489;48.982;8.394;2023-04-24T04:14:45;38.84;36.45;40.71;;
40465;Laerm;30489;48.982;8.394;2023-04-24T04:16:55;38.77;36.45;40.71;;
40465;Laerm;30489;48.982;8.394;2023-04-24T04:19:05;38.82;36.20;40.96;;
40465;Laerm;30489;48.982;8.394;2023-04-24T04:21:15;38.80;36.45;40.80;;
40465;Laerm;30489;48.982;8.394;2023-04-24T04:23:26;38.81;35.66;40.62;;
40465;Laerm;30489;48.982;8.394;2023-04-24T04:25:36;38.81;36.34;41.06;;
40465;Laerm;30489;48.982;8.394;2023-04-24T04:27:46;38.79;35.66;41.06;;
40465;Laerm;30489;48.982;8.394;2023-04-24T04:29:58;38.81;36.45;41.14;;
40465;Laerm;30489;48.982;8.394;2023-04-24T04:32:11;38.87;36.45;40.71;;
40465;Laerm;30489;48.982;8.394;2023-04-24T04:34:21;38.80;36.20;40.71;;
40465;Laerm;30489;48.982;8.394;2023-04-24T04:36:32;38.82;36.45;40.80;;
40465;Laerm;30489;48.982;8.394;2023-04-24T04:38:46;38.79;36.20;40.62;;
40465;Laerm;30489;48.982;8.394;2023-04-24T04:40:56;38.81;36.20;40.63;;
40465;Laerm;30489;48.982;8.394;2023-04-24T04:43:07;38.82;36.45;40.71;;
40465;Laerm;30489;48.982;8.394;2023-04-24T04:45:17;38.82;36.56;40.62;;
40465;Laerm;30489;48.982;8.394;2023-04-24T04:47:27;38.82;36.56;40.53;;
40465;Laerm;30489;48.982;8.394;2023-04-24T04:54:13;38.86;36.69;40.71;;
40465;Laerm;30489;48.982;8.394;2023-04-24T04:56:23;38.99;36.69;40.80;;
40465;Laerm;30489;48.982;8.394;2023-04-24T04:58:33;38.98;36.45;40.80;;
40465;Laerm;30489;48.982;8.394;2023-04-24T05:00:43;39.02;36.91;40.71;;
40465;Laerm;30489;48.982;8.394;2023-04-24T05:02:54;39.03;36.69;40.89;;
40465;Laerm;30489;48.982;8.394;2023-04-24T05:05:05;39.02;36.69;41.75;;
40465;Laerm;30489;48.982;8.394;2023-04-24T05:07:15;38.99;36.20;41.06;;
40465;Laerm;30489;48.982;8.394;2023-04-24T05:09:26;38.98;36.20;40.80;;
40465;Laerm;30489;48.982;8.394;2023-04-24T05:11:37;38.96;36.20;40.96;;
40465;Laerm;30489;48.982;8.394;2023-04-24T05:13:47;38.99;36.20;40.80;;
40465;Laerm;30489;48.982;8.394;2023-04-24T05:15:57;39.00;36.69;41.06;;
40465;Laerm;30489;48.982;8.394;2023-04-24T05:18:08;38.96;36.34;40.71;;
40465;Laerm;30489;48.982;8.394;2023-04-24T05:20:18;38.95;35.94;41.22;;
40465;Laerm;30489;48.982;8.394;2023-04-24T05:22:28;38.94;36.34;40.80;;
40465;Laerm;30489;48.982;8.394;2023-04-24T05:24:38;38.95;36.69;40.89;;
40465;Laerm;30489;48.982;8.394;2023-04-24T05:26:48;38.91;36.69;40.62;;
40465;Laerm;30489;48.982;8.394;2023-04-24T05:28:59;38.92;36.45;40.98;;
40465;Laerm;30489;48.982;8.394;2023-04-24T05:31:10;38.93;36.69;40.80;;
40465;Laerm;30489;48.982;8.394;2023-04-24T05:33:20;38.93;36.69;40.89;;
40465;Laerm;30489;48.982;8.394;2023-04-24T05:35:30;38.93;36.45;40.80;;
40465;Laerm;30489;48.982;8.394;2023-04-24T05:37:40;38.88;36.45;40.53;;
40465;Laerm;30489;48.982;8.394;2023-04-24T05:39:50;38.91;36.69;40.80;;
40465;Laerm;30489;48.982;8.394;2023-04-24T05:42:01;38.90;35.94;40.71;;
40465;Laerm;30489;48.982;8.394;2023-04-24T05:44:11;38.91;36.20;40.89;;
40465;Laerm;30489;48.982;8.394;2023-04-24T05:46:21;38.93;36.45;40.89;;
40465;Laerm;30489;48.982;8.394;2023-04-24T05:48:32;38.88;36.20;40.53;;
40465;Laerm;30489;48.982;8.394;2023-04-24T05:50:42;38.93;36.45;40.89;;
40465;Laerm;30489;48.982;8.394;2023-04-24T05:52:52;38.98;36.45;41.03;;
40465;Laerm;30489;48.982;8.394;2023-04-24T05:55:03;38.99;36.45;40.98;;
40465;Laerm;30489;48.982;8.394;2023-04-24T05:57:13;39.04;36.45;41.06;;
40465;Laerm;30489;48.982;8.394;2023-04-24T05:59:24;39.12;36.45;41.22;;
40465;Laerm;30489;48.982;8.394;2023-04-24T06:01:34;39.18;36.91;40.89;;
40465;Laerm;30489;48.982;8.394;2023-04-24T06:03:46;39.20;36.91;40.89;;
40465;Laerm;30489;48.982;8.394;2023-04-24T06:05:56;39.22;37.12;41.46;;
40465;Laerm;30489;48.982;8.394;2023-04-24T06:08:06;39.22;37.32;41.22;;
40465;Laerm;30489;48.982;8.394;2023-04-24T06:10:16;39.20;37.12;40.89;;
40465;Laerm;30489;48.982;8.394;2023-04-24T06:12:27;39.19;36.91;41.06;;
40465;Laerm;30489;48.982;8.394;2023-04-24T06:14:37;39.23;36.91;40.89;;
40465;Laerm;30489;48.982;8.394;2023-04-24T06:16:48;39.20;37.12;41.53;;
40465;Laerm;30489;48.982;8.394;2023-04-24T06:18:58;39.20;36.91;41.14;;
40465;Laerm;30489;48.982;8.394;2023-04-24T06:21:08;39.18;36.69;40.89;;
40465;Laerm;30489;48.982;8.394;2023-04-24T06:23:18;39.21;36.91;41.30;;
40465;Laerm;30489;48.982;8.394;2023-04-24T06:25:29;39.21;36.91;40.89;;
40465;Laerm;30489;48.982;8.394;2023-04-24T06:27:39;39.24;37.12;40.80;;
40465;Laerm;30489;48.982;8.394;2023-04-24T06:29:50;39.24;36.91;41.06;;
40465;Laerm;30489;48.982;8.394;2023-04-24T06:32:04;39.27;37.32;41.14;;
40465;Laerm;30489;48.982;8.394;2023-04-24T06:34:14;39.30;37.52;40.98;;
40465;Laerm;30489;48.982;8.394;2023-04-24T06:36:24;39.32;37.52;40.98;;
40465;Laerm;30489;48.982;8.394;2023-04-24T06:38:35;39.33;36.98;41.14;;
40465;Laerm;30489;48.982;8.394;2023-04-24T06:40:45;39.38;37.12;41.14;;
40465;Laerm;30489;48.982;8.394;2023-04-24T06:42:55;39.37;37.12;41.46;;
40465;Laerm;30489;48.982;8.394;2023-04-24T06:45:06;39.39;37.52;41.14;;
40465;Laerm;30489;48.982;8.394;2023-04-24T06:47:16;39.43;37.52;41.06;;
40465;Laerm;30489;48.982;8.394;2023-04-24T06:49:27;39.49;37.32;41.14;;
40465;Laerm;30489;48.982;8.394;2023-04-24T06:51:37;39.52;37.32;41.30;;
40465;Laerm;30489;48.982;8.394;2023-04-24T06:53:47;39.59;37.70;41.22;;
40465;Laerm;30489;48.982;8.394;2023-04-24T06:55:58;39.59;37.70;41.14;;
40465;Laerm;30489;48.982;8.394;2023-04-24T06:58:08;39.76;37.70;43.54;;
40465;Laerm;30489;48.982;8.394;2023-04-24T07:00:18;39.80;37.52;41.46;;
40465;Laerm;30489;48.982;8.394;2023-04-24T07:02:29;39.93;38.05;41.82;;
40465;Laerm;30489;48.982;8.394;2023-04-24T07:04:39;39.97;38.21;41.53;;
40465;Laerm;30489;48.982;8.394;2023-04-24T07:06:49;40.00;38.37;41.46;;
40465;Laerm;30489;48.982;8.394;2023-04-24T07:09:01;40.00;38.21;41.38;;
40465;Laerm;30489;48.982;8.394;2023-04-24T07:11:11;40.04;38.21;43.49;;
40465;Laerm;30489;48.982;8.394;2023-04-24T07:13:21;40.03;38.52;42.29;;
40465;Laerm;30489;48.982;8.394;2023-04-24T07:15:32;40.04;38.37;41.38;;
40465;Laerm;30489;48.982;8.394;2023-04-24T07:17:42;40.14;38.52;41.61;;
40465;Laerm;30489;48.982;8.394;2023-04-24T07:19:54;40.12;38.52;41.68;;
40465;Laerm;30489;48.982;8.394;2023-04-24T07:22:04;40.12;38.37;41.53;;
40465;Laerm;30489;48.982;8.394;2023-04-24T07:24:14;40.15;38.37;41.82;;
40465;Laerm;30489;48.982;8.394;2023-04-24T07:26:25;40.14;38.52;41.53;;
40465;Laerm;30489;48.982;8.394;2023-04-24T07:28:35;40.17;38.37;41.61;;
40465;Laerm;30489;48.982;8.394;2023-04-24T07:30:46;40.27;38.21;41.68;;
40465;Laerm;30489;48.982;8.394;2023-04-24T07:32:56;40.36;38.81;42.22;;
40465;Laerm;30489;48.982;8.394;2023-04-24T07:35:06;40.43;38.95;42.03;;
40465;Laerm;30489;48.982;8.394;2023-04-24T07:37:16;40.55;38.95;42.09;;
40465;Laerm;30489;48.982;8.394;2023-04-24T07:39:27;40.60;38.95;42.71;;
40465;Laerm;30489;48.982;8.394;2023-04-24T07:41:39;40.56;39.08;41.89;;
40465;Laerm;30489;48.982;8.394;2023-04-24T07:43:49;40.48;38.67;41.68;;
40465;Laerm;30489;48.982;8.394;2023-04-24T07:45:59;40.48;38.81;41.82;;
40465;Laerm;30489;48.982;8.394;2023-04-24T07:48:09;40.60;39.08;42.22;;
40465;Laerm;30489;48.982;8.394;2023-04-24T07:50:20;40.66;39.21;44.94;;
40465;Laerm;30489;48.982;8.394;2023-04-24T07:52:30;40.70;38.95;42.35;;
40465;Laerm;30489;48.982;8.394;2023-04-24T07:54:41;40.72;39.21;42.98;;
40465;Laerm;30489;48.982;8.394;2023-04-24T07:56:52;40.66;38.95;42.41;;
40465;Laerm;30489;48.982;8.394;2023-04-24T07:59:04;40.65;39.08;42.93;;
40465;Laerm;30489;48.982;8.394;2023-04-24T08:01:14;40.57;39.21;41.96;;
40465;Laerm;30489;48.982;8.394;2023-04-24T08:03:24;40.51;39.08;41.82;;
40465;Laerm;30489;48.982;8.394;2023-04-24T08:05:35;40.49;39.21;41.82;;
40465;Laerm;30489;48.982;8.394;2023-04-24T08:07:45;40.37;38.67;41.82;;
40465;Laerm;30489;48.982;8.394;2023-04-24T08:09:58;40.35;38.81;41.81;;
40465;Laerm;30489;48.982;8.394;2023-04-24T08:12:09;40.32;38.67;41.96;;
40465;Laerm;30489;48.982;8.394;2023-04-24T08:14:19;40.31;38.52;41.89;;
40465;Laerm;30489;48.982;8.394;2023-04-24T08:16:30;40.27;38.67;41.61;;
40465;Laerm;30489;48.982;8.394;2023-04-24T08:18:40;40.22;38.67;41.61;;
40465;Laerm;30489;48.982;8.394;2023-04-24T08:20:50;40.21;38.52;41.68;;
40465;Laerm;30489;48.982;8.394;2023-04-24T08:23:00;40.27;38.37;41.53;;
40465;Laerm;30489;48.982;8.394;2023-04-24T08:25:11;40.33;38.67;41.75;;
40465;Laerm;30489;48.982;8.394;2023-04-24T08:27:21;40.29;38.67;41.82;;
40465;Laerm;30489;48.982;8.394;2023-04-24T08:29:31;40.14;38.37;41.46;;
40465;Laerm;30489;48.982;8.394;2023-04-24T08:31:42;39.96;38.21;41.68;;
40465;Laerm;30489;48.982;8.394;2023-04-24T08:33:52;39.91;38.21;41.61;;
40465;Laerm;30489;48.982;8.394;2023-04-24T08:36:05;39.82;37.70;42.65;;
40465;Laerm;30489;48.982;8.394;2023-04-24T08:38:16;39.76;38.05;41.75;;
40465;Laerm;30489;48.982;8.394;2023-04-24T08:40:27;39.70;37.88;41.53;;
40465;Laerm;30489;48.982;8.394;2023-04-24T08:42:39;39.60;37.52;41.22;;
40465;Laerm;30489;48.982;8.394;2023-04-24T08:44:49;39.56;37.70;41.06;;
40465;Laerm;30489;48.982;8.394;2023-04-24T08:47:01;39.56;37.52;41.22;;
40465;Laerm;30489;48.982;8.394;2023-04-24T08:49:12;39.54;37.12;41.14;;
40465;Laerm;30489;48.982;8.394;2023-04-24T08:51:23;39.53;37.70;41.14;;
40465;Laerm;30489;48.982;8.394;2023-04-24T08:53:36;39.51;37.70;41.30;;
40465;Laerm;30489;48.982;8.394;2023-04-24T08:55:47;39.51;37.70;40.98;;
40465;Laerm;30489;48.982;8.394;2023-04-24T08:57:58;39.59;37.70;41.53;;
40465;Laerm;30489;48.982;8.394;2023-04-24T09:00:09;39.69;37.88;41.14;;
40465;Laerm;30489;48.982;8.394;2023-04-24T09:02:19;39.78;37.88;41.38;;
40465;Laerm;30489;48.982;8.394;2023-04-24T09:04:30;39.87;37.88;41.46;;
40465;Laerm;30489;48.982;8.394;2023-04-24T09:06:43;39.99;38.05;41.53;;
40465;Laerm;30489;48.982;8.394;2023-04-24T09:08:54;40.12;38.52;41.68;;
40465;Laerm;30489;48.982;8.394;2023-04-24T09:11:05;40.24;38.67;41.75;;
40465;Laerm;30489;48.982;8.394;2023-04-24T09:13:16;40.51;38.67;41.82;;
40465;Laerm;30489;48.982;8.394;2023-04-24T09:15:26;40.63;38.95;42.16;;
40465;Laerm;30489;48.982;8.394;2023-04-24T09:17:36;40.74;38.67;42.47;;
40465;Laerm;30489;48.982;8.394;2023-04-24T09:19:47;40.75;38.95;42.65;;
40465;Laerm;30489;48.982;8.394;2023-04-24T09:21:57;40.84;39.34;42.71;;
40465;Laerm;30489;48.982;8.394;2023-04-24T09:24:08;40.85;39.34;42.59;;
40465;Laerm;30489;48.982;8.394;2023-04-24T09:26:23;40.97;39.34;42.82;;
40465;Laerm;30489;48.982;8.394;2023-04-24T09:28:38;40.94;39.68;42.29;;
40465;Laerm;30489;48.982;8.394;2023-04-24T09:30:54;40.92;39.08;42.16;;
40465;Laerm;30489;48.982;8.394;2023-04-24T09:33:14;41.04;39.34;44.94;;
40465;Laerm;30489;48.982;8.394;2023-04-24T09:35:25;41.12;39.78;42.53;;
40465;Laerm;30489;48.982;8.394;2023-04-24T09:37:39;41.21;39.70;44.69;;
40465;Laerm;30489;48.982;8.394;2023-04-24T09:40:07;41.18;39.81;42.53;;
40465;Laerm;30489;48.982;8.394;2023-04-24T09:42:17;41.17;39.81;42.22;;
40465;Laerm;30489;48.982;8.394;2023-04-24T09:44:29;41.17;39.81;42.93;;
40465;Laerm;30489;48.982;8.394;2023-04-24T09:46:40;41.20;39.70;42.41;;
40465;Laerm;30489;48.982;8.394;2023-04-24T09:48:50;41.17;39.89;42.47;;
40465;Laerm;30489;48.982;8.394;2023-04-24T09:51:01;41.17;39.68;42.30;;
40465;Laerm;30489;48.982;8.394;2023-04-24T09:53:13;41.21;39.70;42.22;;
40465;Laerm;30489;48.982;8.394;2023-04-24T09:55:23;41.23;39.92;42.29;;
40465;Laerm;30489;48.982;8.394;2023-04-24T09:57:33;41.41;40.03;43.34;;
40465;Laerm;30489;48.982;8.394;2023-04-24T09:59:45;41.38;39.92;42.53;;
40465;Laerm;30489;48.982;8.394;2023-04-24T10:01:55;41.35;40.03;42.47;;
40465;Laerm;30489;48.982;8.394;2023-04-24T10:06:33;41.36;39.70;42.47;;
40465;Laerm;30489;48.982;8.394;2023-04-24T10:08:43;41.33;40.13;42.41;;
40465;Laerm;30489;48.982;8.394;2023-04-24T10:10:56;41.35;39.92;42.65;;
40465;Laerm;30489;48.982;8.394;2023-04-24T10:13:07;41.47;40.33;42.53;;
40465;Laerm;30489;48.982;8.394;2023-04-24T10:15:17;41.50;40.23;42.82;;
40465;Laerm;30489;48.982;8.394;2023-04-24T10:17:31;41.51;40.33;42.98;;
40465;Laerm;30489;48.982;8.394;2023-04-24T10:19:42;41.48;40.03;42.59;;
40465;Laerm;30489;48.982;8.394;2023-04-24T10:21:53;41.46;40.08;43.54;;
40465;Laerm;30489;48.982;8.394;2023-04-24T10:24:04;41.61;40.13;45.36;;
40465;Laerm;30489;48.982;8.394;2023-04-24T10:26:17;41.55;40.13;42.71;;
40465;Laerm;30489;48.982;8.394;2023-04-24T10:28:27;41.49;40.13;42.65;;
40465;Laerm;30489;48.982;8.394;2023-04-24T10:30:42;41.48;40.03;42.53;;
40465;Laerm;30489;48.982;8.394;2023-04-24T10:32:52;41.43;40.03;42.71;;
40465;Laerm;30489;48.982;8.394;2023-04-24T10:35:03;41.42;40.23;42.59;;
40465;Laerm;30489;48.982;8.394;2023-04-24T10:37:13;41.35;39.92;42.59;;
40465;Laerm;30489;48.982;8.394;2023-04-24T10:39:24;41.38;40.13;42.59;;
40465;Laerm;30489;48.982;8.394;2023-04-24T10:41:36;41.38;40.13;42.47;;
40465;Laerm;30489;48.982;8.394;2023-04-24T10:43:46;41.35;40.13;42.88;;
40465;Laerm;30489;48.982;8.394;2023-04-24T10:46:05;41.36;40.23;42.41;;
40465;Laerm;30489;48.982;8.394;2023-04-24T10:48:15;41.34;40.13;42.47;;
40465;Laerm;30489;48.982;8.394;2023-04-24T10:50:26;41.25;39.81;42.59;;
40465;Laerm;30489;48.982;8.394;2023-04-24T10:52:44;41.24;39.81;42.35;;
40465;Laerm;30489;48.982;8.394;2023-04-24T10:54:55;41.21;39.92;42.88;;
40465;Laerm;30489;48.982;8.394;2023-04-24T10:59:34;41.10;39.81;42.29;;
40465;Laerm;30489;48.982;8.394;2023-04-24T11:01:45;40.96;39.46;42.35;;
40465;Laerm;30489;48.982;8.394;2023-04-24T11:04:02;40.98;39.46;42.22;;
40465;Laerm;30489;48.982;8.394;2023-04-24T11:06:13;41.04;39.70;42.22;;
40465;Laerm;30489;48.982;8.394;2023-04-24T11:10:33;41.08;39.70;42.16;;
40465;Laerm;30489;48.982;8.394;2023-04-24T11:12:43;40.94;39.08;42.29;;
40465;Laerm;30489;48.982;8.394;2023-04-24T11:17:05;40.81;39.34;42.24;;
40465;Laerm;30489;48.982;8.394;2023-04-24T11:22:14;40.95;39.34;42.09;;
40465;Laerm;30489;48.982;8.394;2023-04-24T11:24:38;40.98;39.46;42.29;;
40465;Laerm;30489;48.982;8.394;2023-04-24T11:26:40;41.09;39.58;42.47;;
40465;Laerm;30489;48.982;8.394;2023-04-24T11:28:52;41.17;39.92;42.41;;
40465;Laerm;30489;48.982;8.394;2023-04-24T11:33:31;40.94;39.46;42.29;;
40465;Laerm;30489;48.982;8.394;2023-04-24T11:35:41;40.82;39.46;42.16;;
40465;Laerm;30489;48.982;8.394;2023-04-24T11:37:53;40.76;39.21;45.60;;
40465;Laerm;30489;48.982;8.394;2023-04-24T11:40:04;40.55;39.08;41.68;;
40465;Laerm;30489;48.982;8.394;2023-04-24T11:42:14;40.37;38.52;41.68;;
40465;Laerm;30489;48.982;8.394;2023-04-24T11:44:25;40.27;38.81;41.53;;
40465;Laerm;30489;48.982;8.394;2023-04-24T11:46:36;40.25;38.67;41.75;;
40465;Laerm;30489;48.982;8.394;2023-04-24T11:48:47;39.99;38.32;41.53;;
40465;Laerm;30489;48.982;8.394;2023-04-24T11:50:58;39.94;37.88;41.46;;
40465;Laerm;30489;48.982;8.394;2023-04-24T11:53:11;39.80;37.32;41.53;;
40465;Laerm;30489;48.982;8.394;2023-04-24T11:57:32;39.73;37.53;41.30;;
40465;Laerm;30489;48.982;8.394;2023-04-24T11:59:44;39.64;37.70;41.14;;
40465;Laerm;30489;48.982;8.394;2023-04-24T12:01:54;39.51;37.52;41.06;;
40465;Laerm;30489;48.982;8.394;2023-04-24T12:04:04;39.50;37.12;41.68;;
40465;Laerm;30489;48.982;8.394;2023-04-24T12:06:15;39.38;37.12;40.98;;
40465;Laerm;30489;48.982;8.394;2023-04-24T12:08:28;39.51;37.32;41.06;;
40465;Laerm;30489;48.982;8.394;2023-04-24T12:10:39;39.49;37.32;41.14;;
40465;Laerm;30489;48.982;8.394;2023-04-24T12:12:49;39.44;37.32;41.96;;
40465;Laerm;30489;48.982;8.394;2023-04-24T12:15:01;39.42;37.32;42.22;;
40465;Laerm;30489;48.982;8.394;2023-04-24T12:17:16;39.54;36.69;41.75;;
40465;Laerm;30489;48.982;8.394;2023-04-24T12:19:26;39.67;37.70;41.30;;
40465;Laerm;30489;48.982;8.394;2023-04-24T12:21:39;39.84;37.70;41.96;;
40465;Laerm;30489;48.982;8.394;2023-04-24T12:23:49;40.06;38.05;42.16;;
40465;Laerm;30489;48.982;8.394;2023-04-24T12:26:03;40.04;38.05;41.61;;
40465;Laerm;30489;48.982;8.394;2023-04-24T12:28:13;40.17;38.05;41.89;;
40465;Laerm;30489;48.982;8.394;2023-04-24T12:30:26;40.30;38.67;42.65;;
40465;Laerm;30489;48.982;8.394;2023-04-24T12:32:48;40.11;38.21;41.61;;
40465;Laerm;30489;48.982;8.394;2023-04-24T12:34:59;40.17;38.21;41.75;;